sensor_id;sensor_type;location;lat;lon;timestamp;temperature;humidity
37340;DHT22;23223;51.006;7.610;2022-07-10T00:00:25;14.30;99.90
37340;DHT22;23223;51.006;7.610;2022-07-10T00:02:51;14.20;99.90
37340;DHT22;23223;51.006;7.610;2022-07-10T00:05:20;14.10;99.90
37340;DHT22;23223;51.006;7.610;2022-07-10T00:07:46;13.90;99.90
37340;DHT22;23223;51.006;7.610;2022-07-10T00:10:12;13.80;99.90
37340;DHT22;23223;51.006;7.610;2022-07-10T00:12:38;13.80;99.90
37340;DHT22;23223;51.006;7.610;2022-07-10T00:15:04;13.70;99.90
37340;DHT22;23223;51.006;7.610;2022-07-10T00:17:31;13.60;99.90
37340;DHT22;23223;51.006;7.610;2022-07-10T00:19:57;13.50;99.90
37340;DHT22;23223;51.006;7.610;2022-07-10T00:22:22;13.50;99.90
37340;DHT22;23223;51.006;7.610;2022-07-10T00:24:48;13.60;99.90
37340;DHT22;23223;51.006;7.610;2022-07-10T00:27:16;13.60;99.90
37340;DHT22;23223;51.006;7.610;2022-07-10T00:29:42;13.40;99.90
37340;DHT22;23223;51.006;7.610;2022-07-10T00:32:07;13.30;99.90
37340;DHT22;23223;51.006;7.610;2022-07-10T00:34:33;13.30;99.90
37340;DHT22;23223;51.006;7.610;2022-07-10T00:36:59;13.40;99.90
37340;DHT22;23223;51.006;7.610;2022-07-10T00:39:25;13.50;99.90
37340;DHT22;23223;51.006;7.610;2022-07-10T00:41:51;13.40;99.90
37340;DHT22;23223;51.006;7.610;2022-07-10T00:44:17;13.30;99.90
37340;DHT22;23223;51.006;7.610;2022-07-10T00:46:42;13.30;99.90
37340;DHT22;23223;51.006;7.610;2022-07-10T00:49:08;13.20;99.90
37340;DHT22;23223;51.006;7.610;2022-07-10T00:51:34;13.30;99.90
37340;DHT22;23223;51.006;7.610;2022-07-10T00:54:00;13.30;99.90
37340;DHT22;23223;51.006;7.610;2022-07-10T00:56:26;13.10;99.90
37340;DHT22;23223;51.006;7.610;2022-07-10T00:58:53;13.00;99.90
37340;DHT22;23223;51.006;7.610;2022-07-10T01:01:20;12.80;99.90
37340;DHT22;23223;51.006;7.610;2022-07-10T01:03:48;12.70;99.90
37340;DHT22;23223;51.006;7.610;2022-07-10T01:06:15;12.80;99.90
37340;DHT22;23223;51.006;7.610;2022-07-10T01:08:42;12.70;99.90
37340;DHT22;23223;51.006;7.610;2022-07-10T01:11:09;12.70;99.90
37340;DHT22;23223;51.006;7.610;2022-07-10T01:13:36;12.50;99.90
37340;DHT22;23223;51.006;7.610;2022-07-10T01:16:02;12.40;99.90
37340;DHT22;23223;51.006;7.610;2022-07-10T01:18:27;12.40;99.90
37340;DHT22;23223;51.006;7.610;2022-07-10T01:20:54;12.30;99.90
37340;DHT22;23223;51.006;7.610;2022-07-10T01:23:20;12.20;99.90
37340;DHT22;23223;51.006;7.610;2022-07-10T01:25:45;12.20;99.90
37340;DHT22;23223;51.006;7.610;2022-07-10T01:28:11;12.10;99.90
37340;DHT22;23223;51.006;7.610;2022-07-10T01:30:36;12.20;99.90
37340;DHT22;23223;51.006;7.610;2022-07-10T01:33:02;12.10;99.90
37340;DHT22;23223;51.006;7.610;2022-07-10T01:35:28;12.00;99.90
37340;DHT22;23223;51.006;7.610;2022-07-10T01:37:54;12.00;99.90
37340;DHT22;23223;51.006;7.610;2022-07-10T01:40:19;11.90;99.90
37340;DHT22;23223;51.006;7.610;2022-07-10T01:42:45;11.80;99.90
37340;DHT22;23223;51.006;7.610;2022-07-10T01:45:11;11.70;99.90
37340;DHT22;23223;51.006;7.610;2022-07-10T01:47:37;11.60;99.90
37340;DHT22;23223;51.006;7.610;2022-07-10T01:50:03;11.60;99.90
37340;DHT22;23223;51.006;7.610;2022-07-10T01:52:29;11.70;99.90
37340;DHT22;23223;51.006;7.610;2022-07-10T01:54:55;11.70;99.90
37340;DHT22;23223;51.006;7.610;2022-07-10T01:57:21;11.70;99.90
37340;DHT22;23223;51.006;7.610;2022-07-10T01:59:46;11.80;99.90
37340;DHT22;23223;51.006;7.610;2022-07-10T02:02:12;11.80;99.90
37340;DHT22;23223;51.006;7.610;2022-07-10T02:04:37;11.90;99.90
37340;DHT22;23223;51.006;7.610;2022-07-10T02:07:14;11.90;99.90
37340;DHT22;23223;51.006;7.610;2022-07-10T02:09:41;11.70;99.90
37340;DHT22;23223;51.006;7.610;2022-07-10T02:12:08;11.60;99.90
37340;DHT22;23223;51.006;7.610;2022-07-10T02:14:34;11.50;99.90
37340;DHT22;23223;51.006;7.610;2022-07-10T02:17:00;11.40;99.90
37340;DHT22;23223;51.006;7.610;2022-07-10T02:19:26;11.50;99.90
37340;DHT22;23223;51.006;7.610;2022-07-10T02:21:53;11.80;99.90
37340;DHT22;23223;51.006;7.610;2022-07-10T02:24:18;12.00;99.90
37340;DHT22;23223;51.006;7.610;2022-07-10T02:26:44;11.90;99.90
37340;DHT22;23223;51.006;7.610;2022-07-10T02:29:10;11.70;99.90
37340;DHT22;23223;51.006;7.610;2022-07-10T02:31:35;11.50;99.90
37340;DHT22;23223;51.006;7.610;2022-07-10T02:34:06;11.30;99.90
37340;DHT22;23223;51.006;7.610;2022-07-10T02:36:32;11.20;99.90
37340;DHT22;23223;51.006;7.610;2022-07-10T02:38:58;11.10;99.90
37340;DHT22;23223;51.006;7.610;2022-07-10T02:41:24;11.10;99.90
37340;DHT22;23223;51.006;7.610;2022-07-10T02:43:50;11.30;99.90
37340;DHT22;23223;51.006;7.610;2022-07-10T02:46:15;11.50;99.90
37340;DHT22;23223;51.006;7.610;2022-07-10T02:48:41;11.40;99.90
37340;DHT22;23223;51.006;7.610;2022-07-10T02:51:07;11.40;99.90
37340;DHT22;23223;51.006;7.610;2022-07-10T02:53:32;11.60;99.90
37340;DHT22;23223;51.006;7.610;2022-07-10T02:55:58;11.70;99.90
37340;DHT22;23223;51.006;7.610;2022-07-10T02:58:24;11.60;99.90
37340;DHT22;23223;51.006;7.610;2022-07-10T03:00:49;11.30;99.90
37340;DHT22;23223;51.006;7.610;2022-07-10T03:03:15;11.20;99.90
37340;DHT22;23223;51.006;7.610;2022-07-10T03:05:43;10.90;99.90
37340;DHT22;23223;51.006;7.610;2022-07-10T03:08:09;11.10;99.90
37340;DHT22;23223;51.006;7.610;2022-07-10T03:10:35;11.40;99.90
37340;DHT22;23223;51.006;7.610;2022-07-10T03:13:00;11.40;99.90
37340;DHT22;23223;51.006;7.610;2022-07-10T03:15:27;11.30;99.90
37340;DHT22;23223;51.006;7.610;2022-07-10T03:17:52;11.20;99.90
37340;DHT22;23223;51.006;7.610;2022-07-10T03:20:18;11.00;99.90
37340;DHT22;23223;51.006;7.610;2022-07-10T03:22:44;10.90;99.90
37340;DHT22;23223;51.006;7.610;2022-07-10T03:25:09;10.70;99.90
37340;DHT22;23223;51.006;7.610;2022-07-10T03:27:35;10.50;99.90
37340;DHT22;23223;51.006;7.610;2022-07-10T03:30:00;10.40;99.90
37340;DHT22;23223;51.006;7.610;2022-07-10T03:32:26;10.40;99.90
37340;DHT22;23223;51.006;7.610;2022-07-10T03:34:52;10.60;99.90
37340;DHT22;23223;51.006;7.610;2022-07-10T03:37:18;10.80;99.90
37340;DHT22;23223;51.006;7.610;2022-07-10T03:39:43;10.90;99.90
37340;DHT22;23223;51.006;7.610;2022-07-10T03:42:09;10.80;99.90
37340;DHT22;23223;51.006;7.610;2022-07-10T03:44:34;10.70;99.90
37340;DHT22;23223;51.006;7.610;2022-07-10T03:47:00;10.60;99.90
37340;DHT22;23223;51.006;7.610;2022-07-10T03:49:26;10.50;99.90
37340;DHT22;23223;51.006;7.610;2022-07-10T03:51:51;10.40;99.90
37340;DHT22;23223;51.006;7.610;2022-07-10T03:54:17;10.60;99.90
37340;DHT22;23223;51.006;7.610;2022-07-10T03:56:42;10.80;99.90
37340;DHT22;23223;51.006;7.610;2022-07-10T03:59:26;10.90;99.90
37340;DHT22;23223;51.006;7.610;2022-07-10T04:01:52;10.90;99.90
37340;DHT22;23223;51.006;7.610;2022-07-10T04:04:18;10.90;99.90
37340;DHT22;23223;51.006;7.610;2022-07-10T04:06:43;10.90;99.90
37340;DHT22;23223;51.006;7.610;2022-07-10T04:09:09;10.90;99.90
37340;DHT22;23223;51.006;7.610;2022-07-10T04:11:35;10.90;99.90
37340;DHT22;23223;51.006;7.610;2022-07-10T04:14:00;10.80;99.90
37340;DHT22;23223;51.006;7.610;2022-07-10T04:16:26;10.80;99.90
37340;DHT22;23223;51.006;7.610;2022-07-10T04:18:51;10.80;99.90
37340;DHT22;23223;51.006;7.610;2022-07-10T04:21:17;11.00;99.90
37340;DHT22;23223;51.006;7.610;2022-07-10T04:23:42;11.20;99.90
37340;DHT22;23223;51.006;7.610;2022-07-10T04:26:08;11.40;99.90
37340;DHT22;23223;51.006;7.610;2022-07-10T04:28:33;11.70;99.90
37340;DHT22;23223;51.006;7.610;2022-07-10T04:30:59;11.70;99.90
37340;DHT22;23223;51.006;7.610;2022-07-10T04:33:25;11.50;99.90
37340;DHT22;23223;51.006;7.610;2022-07-10T04:35:51;11.40;99.90
37340;DHT22;23223;51.006;7.610;2022-07-10T04:38:16;11.40;99.90
37340;DHT22;23223;51.006;7.610;2022-07-10T04:40:42;11.50;99.90
37340;DHT22;23223;51.006;7.610;2022-07-10T04:43:08;11.50;99.90
37340;DHT22;23223;51.006;7.610;2022-07-10T04:45:35;11.50;99.90
37340;DHT22;23223;51.006;7.610;2022-07-10T04:48:06;11.60;99.90
37340;DHT22;23223;51.006;7.610;2022-07-10T04:50:32;11.60;99.90
37340;DHT22;23223;51.006;7.610;2022-07-10T04:52:57;11.60;99.90
37340;DHT22;23223;51.006;7.610;2022-07-10T04:55:23;11.60;99.90
37340;DHT22;23223;51.006;7.610;2022-07-10T04:57:49;11.50;99.90
37340;DHT22;23223;51.006;7.610;2022-07-10T05:00:15;11.50;99.90
37340;DHT22;23223;51.006;7.610;2022-07-10T05:02:41;11.60;99.90
37340;DHT22;23223;51.006;7.610;2022-07-10T05:05:07;11.70;99.90
37340;DHT22;23223;51.006;7.610;2022-07-10T05:07:33;11.70;99.90
37340;DHT22;23223;51.006;7.610;2022-07-10T05:09:59;11.80;99.90
37340;DHT22;23223;51.006;7.610;2022-07-10T05:12:25;11.90;99.90
37340;DHT22;23223;51.006;7.610;2022-07-10T05:14:51;12.40;99.90
37340;DHT22;23223;51.006;7.610;2022-07-10T05:17:16;12.70;99.90
37340;DHT22;23223;51.006;7.610;2022-07-10T05:19:42;12.80;99.90
37340;DHT22;23223;51.006;7.610;2022-07-10T05:22:07;12.80;99.90
37340;DHT22;23223;51.006;7.610;2022-07-10T05:24:34;13.00;99.90
37340;DHT22;23223;51.006;7.610;2022-07-10T05:27:00;13.00;99.90
37340;DHT22;23223;51.006;7.610;2022-07-10T05:29:25;13.00;99.90
37340;DHT22;23223;51.006;7.610;2022-07-10T05:31:51;13.20;99.90
37340;DHT22;23223;51.006;7.610;2022-07-10T05:34:17;13.40;99.90
37340;DHT22;23223;51.006;7.610;2022-07-10T05:36:42;13.70;99.90
37340;DHT22;23223;51.006;7.610;2022-07-10T05:39:08;14.00;99.90
37340;DHT22;23223;51.006;7.610;2022-07-10T05:41:33;14.50;99.90
37340;DHT22;23223;51.006;7.610;2022-07-10T05:44:02;14.70;99.90
37340;DHT22;23223;51.006;7.610;2022-07-10T05:46:28;14.80;99.90
37340;DHT22;23223;51.006;7.610;2022-07-10T05:48:56;14.80;99.90
37340;DHT22;23223;51.006;7.610;2022-07-10T05:51:22;14.80;99.90
37340;DHT22;23223;51.006;7.610;2022-07-10T05:53:47;14.90;99.90
37340;DHT22;23223;51.006;7.610;2022-07-10T05:56:13;15.10;99.90
37340;DHT22;23223;51.006;7.610;2022-07-10T05:58:38;15.40;99.90
37340;DHT22;23223;51.006;7.610;2022-07-10T06:01:04;15.60;99.90
37340;DHT22;23223;51.006;7.610;2022-07-10T06:03:30;16.10;99.90
37340;DHT22;23223;51.006;7.610;2022-07-10T06:05:55;16.30;99.90
37340;DHT22;23223;51.006;7.610;2022-07-10T06:08:21;16.70;99.90
37340;DHT22;23223;51.006;7.610;2022-07-10T06:10:46;16.90;99.90
37340;DHT22;23223;51.006;7.610;2022-07-10T06:13:12;17.00;99.90
37340;DHT22;23223;51.006;7.610;2022-07-10T06:15:38;17.10;99.90
37340;DHT22;23223;51.006;7.610;2022-07-10T06:18:04;17.30;99.90
37340;DHT22;23223;51.006;7.610;2022-07-10T06:20:30;17.50;99.90
37340;DHT22;23223;51.006;7.610;2022-07-10T06:22:56;17.50;99.90
37340;DHT22;23223;51.006;7.610;2022-07-10T06:25:22;17.30;99.90
37340;DHT22;23223;51.006;7.610;2022-07-10T06:27:47;17.30;99.90
37340;DHT22;23223;51.006;7.610;2022-07-10T06:30:13;17.20;99.90
37340;DHT22;23223;51.006;7.610;2022-07-10T06:32:39;17.10;99.90
37340;DHT22;23223;51.006;7.610;2022-07-10T06:35:05;16.90;99.90
37340;DHT22;23223;51.006;7.610;2022-07-10T06:37:32;17.00;99.90
37340;DHT22;23223;51.006;7.610;2022-07-10T06:39:58;17.00;99.90
37340;DHT22;23223;51.006;7.610;2022-07-10T06:42:24;17.00;99.90
37340;DHT22;23223;51.006;7.610;2022-07-10T06:44:49;17.10;99.90
37340;DHT22;23223;51.006;7.610;2022-07-10T06:47:17;17.20;99.90
37340;DHT22;23223;51.006;7.610;2022-07-10T06:50:06;17.40;99.90
37340;DHT22;23223;51.006;7.610;2022-07-10T06:52:33;17.80;99.90
37340;DHT22;23223;51.006;7.610;2022-07-10T06:55:00;18.00;99.90
37340;DHT22;23223;51.006;7.610;2022-07-10T06:57:26;17.90;99.90
37340;DHT22;23223;51.006;7.610;2022-07-10T06:59:52;17.90;99.90
37340;DHT22;23223;51.006;7.610;2022-07-10T07:02:18;17.90;99.90
37340;DHT22;23223;51.006;7.610;2022-07-10T07:04:44;17.80;99.90
37340;DHT22;23223;51.006;7.610;2022-07-10T07:07:13;17.50;99.90
37340;DHT22;23223;51.006;7.610;2022-07-10T07:09:39;17.50;99.90
37340;DHT22;23223;51.006;7.610;2022-07-10T07:12:06;17.60;99.90
37340;DHT22;23223;51.006;7.610;2022-07-10T07:14:32;17.60;99.90
37340;DHT22;23223;51.006;7.610;2022-07-10T07:16:58;17.70;99.90
37340;DHT22;23223;51.006;7.610;2022-07-10T07:19:28;17.70;99.90
37340;DHT22;23223;51.006;7.610;2022-07-10T07:22:00;17.70;99.90
37340;DHT22;23223;51.006;7.610;2022-07-10T07:24:45;17.70;99.90
37340;DHT22;23223;51.006;7.610;2022-07-10T07:27:11;17.50;99.90
37340;DHT22;23223;51.006;7.610;2022-07-10T07:29:37;17.50;99.90
37340;DHT22;23223;51.006;7.610;2022-07-10T07:32:03;17.40;99.90
37340;DHT22;23223;51.006;7.610;2022-07-10T07:34:29;17.50;99.90
37340;DHT22;23223;51.006;7.610;2022-07-10T07:36:54;18.40;99.90
37340;DHT22;23223;51.006;7.610;2022-07-10T07:39:20;19.20;99.90
37340;DHT22;23223;51.006;7.610;2022-07-10T07:41:45;19.70;99.90
37340;DHT22;23223;51.006;7.610;2022-07-10T07:44:11;19.70;99.90
37340;DHT22;23223;51.006;7.610;2022-07-10T07:46:37;19.90;99.90
37340;DHT22;23223;51.006;7.610;2022-07-10T07:49:03;20.10;99.90
37340;DHT22;23223;51.006;7.610;2022-07-10T07:51:28;20.30;99.90
37340;DHT22;23223;51.006;7.610;2022-07-10T07:53:54;20.40;99.90
37340;DHT22;23223;51.006;7.610;2022-07-10T07:56:19;20.30;99.90
37340;DHT22;23223;51.006;7.610;2022-07-10T07:58:45;20.20;99.90
37340;DHT22;23223;51.006;7.610;2022-07-10T08:01:10;19.80;99.90
37340;DHT22;23223;51.006;7.610;2022-07-10T08:03:36;20.10;99.90
37340;DHT22;23223;51.006;7.610;2022-07-10T08:06:02;20.30;99.90
37340;DHT22;23223;51.006;7.610;2022-07-10T08:08:27;20.30;99.90
37340;DHT22;23223;51.006;7.610;2022-07-10T08:10:53;20.30;99.90
37340;DHT22;23223;51.006;7.610;2022-07-10T08:13:18;19.90;99.90
37340;DHT22;23223;51.006;7.610;2022-07-10T08:15:44;19.50;99.90
37340;DHT22;23223;51.006;7.610;2022-07-10T08:18:09;19.20;99.90
37340;DHT22;23223;51.006;7.610;2022-07-10T08:20:35;18.90;99.90
37340;DHT22;23223;51.006;7.610;2022-07-10T08:23:00;18.70;99.90
37340;DHT22;23223;51.006;7.610;2022-07-10T08:25:28;18.50;99.90
37340;DHT22;23223;51.006;7.610;2022-07-10T08:28:00;18.50;99.90
37340;DHT22;23223;51.006;7.610;2022-07-10T08:30:26;18.40;99.90
37340;DHT22;23223;51.006;7.610;2022-07-10T08:32:52;18.20;99.90
37340;DHT22;23223;51.006;7.610;2022-07-10T08:35:17;18.30;99.90
37340;DHT22;23223;51.006;7.610;2022-07-10T08:37:44;18.30;99.90
37340;DHT22;23223;51.006;7.610;2022-07-10T08:40:12;18.40;99.90
37340;DHT22;23223;51.006;7.610;2022-07-10T08:42:38;18.50;99.90
37340;DHT22;23223;51.006;7.610;2022-07-10T08:45:04;18.40;99.90
37340;DHT22;23223;51.006;7.610;2022-07-10T08:47:34;18.40;99.90
37340;DHT22;23223;51.006;7.610;2022-07-10T08:50:00;18.50;99.90
37340;DHT22;23223;51.006;7.610;2022-07-10T08:52:26;18.30;99.90
37340;DHT22;23223;51.006;7.610;2022-07-10T08:54:53;18.10;99.90
37340;DHT22;23223;51.006;7.610;2022-07-10T08:57:19;18.00;99.90
37340;DHT22;23223;51.006;7.610;2022-07-10T08:59:45;17.80;99.90
37340;DHT22;23223;51.006;7.610;2022-07-10T09:02:11;17.70;99.90
37340;DHT22;23223;51.006;7.610;2022-07-10T09:04:36;17.60;99.90
37340;DHT22;23223;51.006;7.610;2022-07-10T09:07:03;17.80;99.90
37340;DHT22;23223;51.006;7.610;2022-07-10T09:09:29;17.70;99.90
37340;DHT22;23223;51.006;7.610;2022-07-10T09:11:56;17.70;99.90
37340;DHT22;23223;51.006;7.610;2022-07-10T09:14:24;17.60;99.90
37340;DHT22;23223;51.006;7.610;2022-07-10T09:16:51;17.50;99.90
37340;DHT22;23223;51.006;7.610;2022-07-10T09:19:25;17.60;99.90
37340;DHT22;23223;51.006;7.610;2022-07-10T09:22:00;17.70;99.90
37340;DHT22;23223;51.006;7.610;2022-07-10T09:24:38;17.90;99.90
37340;DHT22;23223;51.006;7.610;2022-07-10T09:27:04;18.10;99.90
37340;DHT22;23223;51.006;7.610;2022-07-10T09:29:31;17.90;99.90
37340;DHT22;23223;51.006;7.610;2022-07-10T09:32:01;17.60;99.90
37340;DHT22;23223;51.006;7.610;2022-07-10T09:34:45;17.30;99.90
37340;DHT22;23223;51.006;7.610;2022-07-10T09:37:22;17.40;99.90
37340;DHT22;23223;51.006;7.610;2022-07-10T09:39:56;17.20;99.90
37340;DHT22;23223;51.006;7.610;2022-07-10T09:47:39;17.10;99.90
37340;DHT22;23223;51.006;7.610;2022-07-10T09:52:52;17.00;99.90
37340;DHT22;23223;51.006;7.610;2022-07-10T09:55:23;16.90;99.90
37340;DHT22;23223;51.006;7.610;2022-07-10T09:57:58;17.00;99.90
37340;DHT22;23223;51.006;7.610;2022-07-10T10:00:26;17.10;99.90
37340;DHT22;23223;51.006;7.610;2022-07-10T10:03:04;17.40;99.90
37340;DHT22;23223;51.006;7.610;2022-07-10T10:05:42;17.70;99.90
37340;DHT22;23223;51.006;7.610;2022-07-10T10:08:19;17.80;99.90
37340;DHT22;23223;51.006;7.610;2022-07-10T10:10:47;17.80;99.90
37340;DHT22;23223;51.006;7.610;2022-07-10T10:13:16;17.50;99.90
37340;DHT22;23223;51.006;7.610;2022-07-10T10:15:44;17.30;99.90
37340;DHT22;23223;51.006;7.610;2022-07-10T10:18:12;17.20;99.90
37340;DHT22;23223;51.006;7.610;2022-07-10T10:20:37;17.10;99.90
37340;DHT22;23223;51.006;7.610;2022-07-10T10:23:10;17.10;99.90
37340;DHT22;23223;51.006;7.610;2022-07-10T10:25:38;17.10;99.90
37340;DHT22;23223;51.006;7.610;2022-07-10T10:28:05;17.20;99.90
37340;DHT22;23223;51.006;7.610;2022-07-10T10:30:33;17.20;99.90
37340;DHT22;23223;51.006;7.610;2022-07-10T10:33:00;17.20;99.90
37340;DHT22;23223;51.006;7.610;2022-07-10T10:35:43;17.30;99.90
37340;DHT22;23223;51.006;7.610;2022-07-10T10:38:15;17.50;99.90
37340;DHT22;23223;51.006;7.610;2022-07-10T10:40:41;17.50;99.90
37340;DHT22;23223;51.006;7.610;2022-07-10T10:45:43;17.90;99.90
37340;DHT22;23223;51.006;7.610;2022-07-10T10:48:13;18.10;99.90
37340;DHT22;23223;51.006;7.610;2022-07-10T10:50:41;18.20;99.90
37340;DHT22;23223;51.006;7.610;2022-07-10T10:53:15;18.20;99.90
37340;DHT22;23223;51.006;7.610;2022-07-10T10:56:20;18.40;99.90
37340;DHT22;23223;51.006;7.610;2022-07-10T10:58:28;18.40;99.90
37340;DHT22;23223;51.006;7.610;2022-07-10T11:01:04;18.80;99.90
37340;DHT22;23223;51.006;7.610;2022-07-10T11:03:31;18.80;99.90
37340;DHT22;23223;51.006;7.610;2022-07-10T11:05:56;19.10;99.90
37340;DHT22;23223;51.006;7.610;2022-07-10T11:08:36;19.30;99.90
37340;DHT22;23223;51.006;7.610;2022-07-10T11:13:57;19.10;99.90
37340;DHT22;23223;51.006;7.610;2022-07-10T11:16:24;19.00;99.90
37340;DHT22;23223;51.006;7.610;2022-07-10T11:18:52;18.90;99.90
37340;DHT22;23223;51.006;7.610;2022-07-10T11:21:23;18.80;99.90
37340;DHT22;23223;51.006;7.610;2022-07-10T11:23:56;18.90;99.90
37340;DHT22;23223;51.006;7.610;2022-07-10T11:26:35;18.90;99.90
37340;DHT22;23223;51.006;7.610;2022-07-10T11:29:03;18.90;99.90
37340;DHT22;23223;51.006;7.610;2022-07-10T11:31:31;18.80;99.90
37340;DHT22;23223;51.006;7.610;2022-07-10T11:33:59;18.70;99.90
37340;DHT22;23223;51.006;7.610;2022-07-10T11:36:26;18.60;99.90
37340;DHT22;23223;51.006;7.610;2022-07-10T11:39:02;18.40;99.90
37340;DHT22;23223;51.006;7.610;2022-07-10T11:41:29;18.40;99.90
37340;DHT22;23223;51.006;7.610;2022-07-10T11:43:56;18.30;99.90
37340;DHT22;23223;51.006;7.610;2022-07-10T11:46:27;18.30;99.90
37340;DHT22;23223;51.006;7.610;2022-07-10T11:48:54;18.20;99.90
37340;DHT22;23223;51.006;7.610;2022-07-10T11:54:05;17.90;99.90
37340;DHT22;23223;51.006;7.610;2022-07-10T11:59:03;17.50;99.90
37340;DHT22;23223;51.006;7.610;2022-07-10T12:01:30;17.40;99.90
37340;DHT22;23223;51.006;7.610;2022-07-10T12:04:04;17.30;99.90
37340;DHT22;23223;51.006;7.610;2022-07-10T12:06:31;17.20;99.90
37340;DHT22;23223;51.006;7.610;2022-07-10T12:09:05;17.40;99.90
37340;DHT22;23223;51.006;7.610;2022-07-10T12:11:31;17.60;99.90
37340;DHT22;23223;51.006;7.610;2022-07-10T12:14:17;17.70;99.90
37340;DHT22;23223;51.006;7.610;2022-07-10T12:16:45;17.60;99.90
37340;DHT22;23223;51.006;7.610;2022-07-10T12:19:16;17.60;99.90
37340;DHT22;23223;51.006;7.610;2022-07-10T12:21:44;17.50;99.90
37340;DHT22;23223;51.006;7.610;2022-07-10T12:24:10;17.50;99.90
37340;DHT22;23223;51.006;7.610;2022-07-10T12:26:40;17.40;99.90
37340;DHT22;23223;51.006;7.610;2022-07-10T12:32:09;17.50;99.90
37340;DHT22;23223;51.006;7.610;2022-07-10T12:34:38;18.00;99.90
37340;DHT22;23223;51.006;7.610;2022-07-10T12:37:09;18.00;99.90
37340;DHT22;23223;51.006;7.610;2022-07-10T12:39:48;18.00;99.90
37340;DHT22;23223;51.006;7.610;2022-07-10T12:42:30;18.00;99.90
37340;DHT22;23223;51.006;7.610;2022-07-10T12:45:15;17.90;99.90
37340;DHT22;23223;51.006;7.610;2022-07-10T12:47:45;17.80;99.90
37340;DHT22;23223;51.006;7.610;2022-07-10T12:50:12;17.90;99.90
37340;DHT22;23223;51.006;7.610;2022-07-10T12:52:38;18.10;99.90
37340;DHT22;23223;51.006;7.610;2022-07-10T12:55:21;18.30;99.90
37340;DHT22;23223;51.006;7.610;2022-07-10T12:57:54;18.10;99.90
37340;DHT22;23223;51.006;7.610;2022-07-10T13:00:25;17.70;99.90
37340;DHT22;23223;51.006;7.610;2022-07-10T13:03:05;17.60;99.90
37340;DHT22;23223;51.006;7.610;2022-07-10T13:05:37;17.60;99.90
37340;DHT22;23223;51.006;7.610;2022-07-10T13:08:19;17.70;99.90
37340;DHT22;23223;51.006;7.610;2022-07-10T13:10:57;18.00;99.90
37340;DHT22;23223;51.006;7.610;2022-07-10T13:13:26;18.30;99.90
37340;DHT22;23223;51.006;7.610;2022-07-10T13:15:54;18.60;99.90
37340;DHT22;23223;51.006;7.610;2022-07-10T13:18:21;18.70;99.90
37340;DHT22;23223;51.006;7.610;2022-07-10T13:20:48;18.40;99.90
37340;DHT22;23223;51.006;7.610;2022-07-10T13:23:15;18.40;99.90
37340;DHT22;23223;51.006;7.610;2022-07-10T13:25:41;18.60;99.90
37340;DHT22;23223;51.006;7.610;2022-07-10T13:28:08;18.40;99.90
37340;DHT22;23223;51.006;7.610;2022-07-10T13:30:35;18.30;99.90
37340;DHT22;23223;51.006;7.610;2022-07-10T13:33:01;18.30;99.90
37340;DHT22;23223;51.006;7.610;2022-07-10T13:35:30;18.40;99.90
37340;DHT22;23223;51.006;7.610;2022-07-10T13:37:57;18.40;99.90
37340;DHT22;23223;51.006;7.610;2022-07-10T13:40:30;18.60;99.90
37340;DHT22;23223;51.006;7.610;2022-07-10T13:42:57;18.30;99.90
37340;DHT22;23223;51.006;7.610;2022-07-10T13:45:23;18.30;99.90
37340;DHT22;23223;51.006;7.610;2022-07-10T13:47:51;18.20;99.90
37340;DHT22;23223;51.006;7.610;2022-07-10T13:50:19;18.00;99.90
37340;DHT22;23223;51.006;7.610;2022-07-10T13:52:44;17.90;99.90
37340;DHT22;23223;51.006;7.610;2022-07-10T13:55:10;17.90;99.90
37340;DHT22;23223;51.006;7.610;2022-07-10T13:57:35;17.90;99.90
37340;DHT22;23223;51.006;7.610;2022-07-10T14:00:01;18.00;99.90
37340;DHT22;23223;51.006;7.610;2022-07-10T14:02:26;17.90;99.90
37340;DHT22;23223;51.006;7.610;2022-07-10T14:04:52;17.80;99.90
37340;DHT22;23223;51.006;7.610;2022-07-10T14:07:18;17.70;99.90
37340;DHT22;23223;51.006;7.610;2022-07-10T14:09:43;17.90;99.90
37340;DHT22;23223;51.006;7.610;2022-07-10T14:12:09;18.20;99.90
37340;DHT22;23223;51.006;7.610;2022-07-10T14:14:36;18.40;99.90
37340;DHT22;23223;51.006;7.610;2022-07-10T14:17:01;18.40;99.90
37340;DHT22;23223;51.006;7.610;2022-07-10T14:19:27;18.10;99.90
37340;DHT22;23223;51.006;7.610;2022-07-10T14:21:52;18.00;99.90
37340;DHT22;23223;51.006;7.610;2022-07-10T14:24:18;18.00;99.90
37340;DHT22;23223;51.006;7.610;2022-07-10T14:26:43;17.70;99.90
37340;DHT22;23223;51.006;7.610;2022-07-10T14:29:09;17.30;99.90
37340;DHT22;23223;51.006;7.610;2022-07-10T14:31:34;17.00;99.90
37340;DHT22;23223;51.006;7.610;2022-07-10T14:34:00;16.90;99.90
37340;DHT22;23223;51.006;7.610;2022-07-10T14:36:26;16.90;99.90
37340;DHT22;23223;51.006;7.610;2022-07-10T14:38:56;16.90;99.90
37340;DHT22;23223;51.006;7.610;2022-07-10T14:41:25;17.00;99.90
37340;DHT22;23223;51.006;7.610;2022-07-10T14:43:51;17.20;99.90
37340;DHT22;23223;51.006;7.610;2022-07-10T14:46:16;17.30;99.90
37340;DHT22;23223;51.006;7.610;2022-07-10T14:48:42;17.30;99.90
37340;DHT22;23223;51.006;7.610;2022-07-10T14:51:08;17.10;99.90
37340;DHT22;23223;51.006;7.610;2022-07-10T14:53:34;17.10;99.90
37340;DHT22;23223;51.006;7.610;2022-07-10T14:56:04;17.00;99.90
37340;DHT22;23223;51.006;7.610;2022-07-10T14:58:30;17.10;99.90
37340;DHT22;23223;51.006;7.610;2022-07-10T15:00:55;17.00;99.90
37340;DHT22;23223;51.006;7.610;2022-07-10T15:03:21;17.00;99.90
37340;DHT22;23223;51.006;7.610;2022-07-10T15:05:46;16.80;99.90
37340;DHT22;23223;51.006;7.610;2022-07-10T15:08:12;16.70;99.90
37340;DHT22;23223;51.006;7.610;2022-07-10T15:10:37;16.50;99.90
37340;DHT22;23223;51.006;7.610;2022-07-10T15:13:03;16.50;99.90
37340;DHT22;23223;51.006;7.610;2022-07-10T15:15:33;16.70;99.90
37340;DHT22;23223;51.006;7.610;2022-07-10T15:17:59;16.80;99.90
37340;DHT22;23223;51.006;7.610;2022-07-10T15:20:25;16.70;99.90
37340;DHT22;23223;51.006;7.610;2022-07-10T15:22:50;16.90;99.90
37340;DHT22;23223;51.006;7.610;2022-07-10T15:25:16;16.80;99.90
37340;DHT22;23223;51.006;7.610;2022-07-10T15:27:41;16.90;99.90
37340;DHT22;23223;51.006;7.610;2022-07-10T15:30:08;17.00;99.90
37340;DHT22;23223;51.006;7.610;2022-07-10T15:32:36;16.80;99.90
37340;DHT22;23223;51.006;7.610;2022-07-10T15:35:02;16.70;99.90
37340;DHT22;23223;51.006;7.610;2022-07-10T15:37:28;16.70;99.90
37340;DHT22;23223;51.006;7.610;2022-07-10T15:39:54;16.70;99.90
37340;DHT22;23223;51.006;7.610;2022-07-10T15:42:20;16.60;99.90
37340;DHT22;23223;51.006;7.610;2022-07-10T15:44:45;16.60;99.90
37340;DHT22;23223;51.006;7.610;2022-07-10T15:47:11;16.60;99.90
37340;DHT22;23223;51.006;7.610;2022-07-10T15:49:37;16.70;99.90
37340;DHT22;23223;51.006;7.610;2022-07-10T15:52:03;16.90;99.90